| time (UTC) | temp F | wind direction | speed knots | gust knots | rain 1hr in | rain 24hr in | rain mn in | humidity % | barometer mb |
| 20260509000335 | 63 | 124 | 2.6 | 2.6 | 0.00 | 0.00 | 0.00 | 50 | 1013.2 |
| 20260508235831 | 64 | 172 | 0.9 | 1.7 | 0.00 | 0.00 | 0.00 | 51 | 1013.2 |
| 20260508235328 | 64 | 174 | 1.7 | 2.6 | 0.00 | 0.00 | 0.00 | 49 | 1013.2 |
| 20260508234825 | 64 | 110 | 1.7 | 1.7 | 0.00 | 0.00 | 0.00 | 49 | 1013.1 |
| 20260508234322 | 64 | 146 | 0.9 | 0.9 | 0.00 | 0.00 | 0.00 | 50 | 1013.1 |
| 20260508233820 | 64 | 168 | 0.9 | 0.9 | 0.00 | 0.00 | 0.00 | 49 | 1013.1 |
| 20260508233319 | 65 | 162 | 0.9 | 1.7 | 0.00 | 0.00 | 0.00 | 47 | 1013.0 |
| 20260508232816 | 65 | 170 | 0.9 | 0.9 | 0.00 | 0.00 | 0.00 | 48 | 1013.2 |
| 20260508232312 | 65 | 207 | 0.9 | 1.7 | 0.00 | 0.00 | 0.00 | 47 | 1013.1 |
| 20260508231811 | 66 | 139 | 0.0 | 0.9 | 0.00 | 0.00 | 0.00 | 46 | 1013.0 |
| 20260508231306 | 66 | 152 | 0.0 | 0.9 | 0.00 | 0.00 | 0.00 | 45 | 1013.1 |
| 20260508230803 | 67 | 169 | 0.9 | 0.9 | 0.00 | 0.00 | 0.00 | 45 | 1013.2 |
| 20260508230300 | 67 | 146 | 2.6 | 2.6 | 0.00 | 0.00 | 0.00 | 43 | 1013.1 |
| 20260508225758 | 67 | 177 | 1.7 | 2.6 | 0.00 | 0.00 | 0.00 | 45 | 1013.2 |
| 20260508225253 | 67 | 181 | 0.9 | 0.9 | 0.00 | 0.00 | 0.00 | 45 | 1013.5 |
| 20260508224752 | 68 | 177 | 0.9 | 1.7 | 0.00 | 0.00 | 0.00 | 42 | 1013.3 |
| 20260508224249 | 68 | 103 | 2.6 | 2.6 | 0.00 | 0.00 | 0.00 | 41 | 1013.7 |
| 20260508223747 | 68 | 109 | 1.7 | 2.6 | 0.00 | 0.00 | 0.00 | 42 | 1013.8 |
| 20260508223244 | 68 | 253 | 4.3 | 5.2 | 0.00 | 0.00 | 0.00 | 41 | 1013.9 |
| 20260508222741 | 69 | 179 | 2.6 | 2.6 | 0.00 | 0.00 | 0.00 | 43 | 1013.6 |
| 20260508222238 | 68 | 215 | 3.5 | 4.3 | 0.00 | 0.00 | 0.00 | 40 | 1013.9 |
| 20260508221734 | 68 | 198 | 0.9 | 1.7 | 0.00 | 0.00 | 0.00 | 42 | 1013.8 |
| 20260508221231 | 69 | 205 | 2.6 | 2.6 | 0.00 | 0.00 | 0.00 | 40 | 1013.7 |
| 20260508220726 | 68 | 161 | 0.9 | 0.9 | 0.00 | 0.00 | 0.00 | 42 | 1013.7 |
| 20260508220223 | 68 | 220 | 2.6 | 4.3 | 0.00 | 0.00 | 0.00 | 40 | 1013.8 |
| 20260508215720 | 69 | 192 | 3.5 | 4.3 | 0.00 | 0.00 | 0.00 | 37 | 1013.9 |
| 20260508215216 | 69 | 157 | 1.7 | 1.7 | 0.00 | 0.00 | 0.00 | 36 | 1013.7 |
| 20260508214714 | 69 | 152 | 0.9 | 0.9 | 0.00 | 0.00 | 0.00 | 38 | 1013.6 |
| 20260508214211 | 68 | 163 | 2.6 | 4.3 | 0.00 | 0.00 | 0.00 | 36 | 1013.6 |
| 20260508213707 | 69 | 97 | 2.6 | 4.3 | 0.00 | 0.00 | 0.00 | 35 | 1013.6 |
| 20260508213204 | 69 | 166 | 0.9 | 1.7 | 0.00 | 0.00 | 0.00 | 38 | 1013.4 |
| 20260508212700 | 68 | 171 | 0.9 | 1.7 | 0.00 | 0.00 | 0.00 | 40 | 1013.5 |
| 20260508212157 | 68 | 138 | 2.6 | 2.6 | 0.00 | 0.00 | 0.00 | 34 | 1013.5 |
| 20260508211652 | 68 | 159 | 0.9 | 1.7 | 0.00 | 0.00 | 0.00 | 39 | 1013.6 |
| 20260508211148 | 68 | 206 | 2.6 | 2.6 | 0.00 | 0.00 | 0.00 | 34 | 1013.5 |
| 20260508210646 | 68 | 211 | 4.3 | 5.2 | 0.00 | 0.00 | 0.00 | 35 | 1013.6 |
| 20260508210143 | 69 | 177 | 0.9 | 0.9 | 0.00 | 0.00 | 0.00 | 34 | 1013.6 |
| 20260508205640 | 69 | 157 | 1.7 | 1.7 | 0.00 | 0.00 | 0.00 | 42 | 1013.8 |
| 20260508205136 | 68 | 147 | 1.7 | 2.6 | 0.00 | 0.00 | 0.00 | 37 | 1013.9 |
| 20260508204632 | 68 | 213 | 4.3 | 6.1 | 0.00 | 0.00 | 0.00 | 35 | 1013.8 |
| 20260508204128 | 68 | 179 | 4.3 | 5.2 | 0.00 | 0.00 | 0.00 | 33 | 1013.8 |
| 20260508203625 | 69 | 249 | 4.3 | 5.2 | 0.00 | 0.00 | 0.00 | 37 | 1013.7 |
| 20260508203121 | 68 | 232 | 3.5 | 5.2 | 0.00 | 0.00 | 0.00 | 36 | 1013.9 |
| 20260508202617 | 69 | 174 | 2.6 | 4.3 | 0.00 | 0.00 | 0.00 | 37 | 1013.8 |
| 20260508202115 | 69 | 151 | 0.9 | 1.7 | 0.00 | 0.00 | 0.00 | 39 | 1013.7 |
| 20260508201611 | 68 | 234 | 1.7 | 1.7 | 0.00 | 0.00 | 0.00 | 35 | 1014.0 |
| 20260508201108 | 68 | 188 | 4.3 | 5.2 | 0.00 | 0.00 | 0.00 | 32 | 1014.1 |
| 20260508200605 | 67 | 171 | 1.7 | 2.6 | 0.00 | 0.00 | 0.00 | 35 | 1013.9 |
| 20260508200101 | 67 | 169 | 1.7 | 1.7 | 0.00 | 0.00 | 0.00 | 35 | 1014.4 |
| 20260508195558 | 67 | 179 | 0.0 | 0.9 | 0.00 | 0.00 | 0.00 | 37 | 1014.5 |
| 20260508195054 | 68 | 169 | 2.6 | 2.6 | 0.00 | 0.00 | 0.00 | 37 | 1014.5 |
| 20260508194551 | 67 | 233 | 3.5 | 4.3 | 0.00 | 0.00 | 0.00 | 36 | 1014.7 |
| 20260508194048 | 67 | 181 | 6.1 | 7.0 | 0.00 | 0.00 | 0.00 | 38 | 1014.9 |
| 20260508193544 | 69 | 143 | 1.7 | 1.7 | 0.00 | 0.00 | 0.00 | 40 | 1015.1 |
| 20260508193041 | 66 | 161 | 0.9 | 0.9 | 0.00 | 0.00 | 0.00 | 42 | 1015.0 |
| 20260508192538 | 67 | 199 | 6.1 | 7.0 | 0.00 | 0.00 | 0.00 | 39 | 1015.4 |
| 20260508192035 | 67 | 147 | 0.9 | 1.7 | 0.00 | 0.00 | 0.00 | 40 | 1015.3 |
| 20260508191532 | 67 | 182 | 2.6 | 2.6 | 0.00 | 0.00 | 0.00 | 39 | 1015.3 |
| 20260508191028 | 68 | 206 | 3.5 | 5.2 | 0.00 | 0.00 | 0.00 | 43 | 1015.2 |
| 20260508190526 | 67 | 148 | 2.6 | 2.6 | 0.00 | 0.00 | 0.00 | 37 | 1015.4 |
| 20260508190022 | 67 | 149 | 3.5 | 5.2 | 0.00 | 0.00 | 0.00 | 46 | 1015.4 |
| 20260508185519 | 67 | 229 | 3.5 | 5.2 | 0.00 | 0.00 | 0.00 | 42 | 1015.6 |
| 20260508185017 | 67 | 118 | 0.9 | 0.9 | 0.00 | 0.00 | 0.00 | 38 | 1015.6 |
| 20260508184514 | 67 | 167 | 2.6 | 4.3 | 0.00 | 0.00 | 0.00 | 40 | 1016.0 |
| 20260508184011 | 66 | 153 | 2.6 | 4.3 | 0.00 | 0.00 | 0.00 | 41 | 1015.8 |
| 20260508183507 | 65 | 243 | 3.5 | 4.3 | 0.00 | 0.00 | 0.00 | 38 | 1016.1 |
| 20260508183003 | 66 | 60 | 1.7 | 2.6 | 0.00 | 0.00 | 0.00 | 39 | 1015.9 |
| 20260508182500 | 65 | 223 | 4.3 | 5.2 | 0.00 | 0.00 | 0.00 | 39 | 1016.1 |
| 20260508181956 | 65 | 223 | 3.5 | 5.2 | 0.00 | 0.00 | 0.00 | 41 | 1015.9 |
| 20260508181452 | 65 | 190 | 4.3 | 5.2 | 0.00 | 0.00 | 0.00 | 47 | 1016.1 |
| 20260508180950 | 66 | 195 | 0.9 | 1.7 | 0.00 | 0.00 | 0.00 | 45 | 1016.4 |
| 20260508180446 | 66 | 68 | 1.7 | 2.6 | 0.00 | 0.00 | 0.00 | 39 | 1016.4 |
| 20260508175942 | 65 | 147 | 0.9 | 1.7 | 0.00 | 0.00 | 0.00 | 40 | 1016.4 |
| 20260508175439 | 65 | 81 | 1.7 | 1.7 | 0.00 | 0.00 | 0.00 | 42 | 1016.4 |
| 20260508174937 | 64 | 212 | 3.5 | 4.3 | 0.00 | 0.00 | 0.00 | 40 | 1016.2 |
| 20260508174434 | 65 | 122 | 2.6 | 4.3 | 0.00 | 0.00 | 0.00 | 40 | 1016.4 |
| 20260508173931 | 64 | 173 | 2.6 | 2.6 | 0.00 | 0.00 | 0.00 | 45 | 1016.7 |
| 20260508173428 | 64 | 189 | 1.7 | 1.7 | 0.00 | 0.00 | 0.00 | 39 | 1016.7 |
| 20260508172923 | 64 | 189 | 2.6 | 2.6 | 0.00 | 0.00 | 0.00 | 42 | 1016.9 |
| 20260508172422 | 65 | 185 | 1.7 | 1.7 | 0.00 | 0.00 | 0.00 | 41 | 1016.9 |
| 20260508171917 | 64 | 138 | 0.9 | 1.7 | 0.00 | 0.00 | 0.00 | 45 | 1016.9 |
| 20260508171414 | 62 | 172 | 0.9 | 1.7 | 0.00 | 0.00 | 0.00 | 49 | 1017.2 |
| 20260508170911 | 62 | 218 | 2.6 | 4.3 | 0.00 | 0.00 | 0.00 | 42 | 1017.3 |
| 20260508170408 | 63 | 131 | 1.7 | 1.7 | 0.00 | 0.00 | 0.00 | 43 | 1017.2 |
| 20260508165904 | 63 | 159 | 1.7 | 1.7 | 0.00 | 0.00 | 0.00 | 41 | 1017.5 |
| 20260508165403 | 63 | 92 | 3.5 | 6.1 | 0.00 | 0.00 | 0.00 | 42 | 1017.3 |
| 20260508164858 | 63 | 255 | 4.3 | 6.1 | 0.00 | 0.00 | 0.00 | 41 | 1017.5 |
| 20260508164355 | 62 | 265 | 1.7 | 4.3 | 0.00 | 0.00 | 0.00 | 43 | 1017.6 |
| 20260508163853 | 62 | 140 | 0.9 | 1.7 | 0.00 | 0.00 | 0.00 | 43 | 1017.6 |
| 20260508163350 | 63 | 223 | 4.3 | 7.0 | 0.00 | 0.00 | 0.00 | 47 | 1017.7 |
| 20260508162845 | 63 | 246 | 2.6 | 2.6 | 0.00 | 0.00 | 0.00 | 45 | 1017.8 |
| 20260508162343 | 62 | 211 | 0.9 | 1.7 | 0.00 | 0.00 | 0.00 | 46 | 1017.9 |
| 20260508161840 | 61 | 150 | 0.9 | 0.9 | 0.00 | 0.00 | 0.00 | 44 | 1017.9 |
| 20260508161337 | 61 | 124 | 4.3 | 6.1 | 0.00 | 0.00 | 0.00 | 43 | 1018.0 |
| 20260508160834 | 62 | 221 | 5.2 | 5.2 | 0.00 | 0.00 | 0.00 | 43 | 1018.2 |
| 20260508160333 | 61 | 135 | 0.9 | 1.7 | 0.00 | 0.00 | 0.00 | 49 | 1018.3 |
| 20260508155829 | 61 | 136 | 3.5 | 4.3 | 0.00 | 0.00 | 0.00 | 48 | 1018.5 |
| 20260508155326 | 60 | 120 | 1.7 | 1.7 | 0.00 | 0.00 | 0.00 | 46 | 1018.5 |
| 20260508154823 | 61 | 229 | 3.5 | 4.3 | 0.00 | 0.00 | 0.00 | 47 | 1018.3 |
| 20260508154321 | 60 | 145 | 1.7 | 1.7 | 0.00 | 0.00 | 0.00 | 49 | 1018.5 |
| 20260508153817 | 60 | 181 | 3.5 | 4.3 | 0.00 | 0.00 | 0.00 | 54 | 1018.5 |
| 20260508153315 | 61 | 214 | 0.9 | 1.7 | 0.00 | 0.00 | 0.00 | 53 | 1018.6 |
| 20260508152810 | 61 | 152 | 1.7 | 1.7 | 0.00 | 0.00 | 0.00 | 47 | 1018.6 |
| 20260508152307 | 60 | 109 | 2.6 | 2.6 | 0.00 | 0.00 | 0.00 | 54 | 1019.0 |
| 20260508151803 | 60 | 227 | 3.5 | 5.2 | 0.00 | 0.00 | 0.00 | 51 | 1018.8 |
| 20260508151300 | 60 | 173 | 3.5 | 4.3 | 0.00 | 0.00 | 0.00 | 49 | 1018.8 |
| 20260508150756 | 60 | 120 | 0.0 | 0.0 | 0.00 | 0.00 | 0.00 | 52 | 1018.7 |
| 20260508150253 | 59 | 132 | 2.6 | 2.6 | 0.00 | 0.00 | 0.00 | 55 | 1019.0 |
| 20260508145749 | 59 | 108 | 2.6 | 4.3 | 0.00 | 0.00 | 0.00 | 54 | 1018.8 |
| 20260508145246 | 58 | 189 | 2.6 | 2.6 | 0.00 | 0.00 | 0.00 | 52 | 1018.8 |
| 20260508144743 | 59 | 185 | 1.7 | 1.7 | 0.00 | 0.00 | 0.00 | 53 | 1019.0 |
| 20260508144241 | 58 | 234 | 3.5 | 4.3 | 0.00 | 0.00 | 0.00 | 61 | 1018.7 |
| 20260508143738 | 57 | 220 | 3.5 | 4.3 | 0.00 | 0.00 | 0.00 | 60 | 1018.9 |
| 20260508143235 | 57 | 252 | 5.2 | 6.1 | 0.00 | 0.00 | 0.00 | 60 | 1019.0 |
| 20260508142731 | 57 | 120 | 0.9 | 1.7 | 0.00 | 0.00 | 0.00 | 61 | 1019.0 |
| 20260508142228 | 56 | 119 | 1.7 | 2.6 | 0.00 | 0.00 | 0.00 | 62 | 1018.9 |
| 20260508141725 | 56 | 155 | 1.7 | 1.7 | 0.00 | 0.00 | 0.00 | 64 | 1018.9 |
| 20260508141222 | 56 | 126 | 0.0 | 0.9 | 0.00 | 0.00 | 0.00 | 63 | 1018.9 |
| 20260508140720 | 55 | 175 | 0.9 | 1.7 | 0.00 | 0.00 | 0.00 | 65 | 1019.1 |
| 20260508140216 | 55 | 211 | 1.7 | 2.6 | 0.00 | 0.00 | 0.00 | 70 | 1018.9 |
| 20260508135712 | 55 | 130 | 1.7 | 1.7 | 0.00 | 0.00 | 0.00 | 71 | 1018.8 |
| 20260508135208 | 55 | 195 | 2.6 | 4.3 | 0.00 | 0.00 | 0.00 | 70 | 1019.0 |
| 20260508134704 | 54 | 174 | 2.6 | 4.3 | 0.00 | 0.00 | 0.00 | 70 | 1018.9 |
| 20260508134201 | 53 | 123 | 2.6 | 2.6 | 0.00 | 0.00 | 0.00 | 70 | 1018.8 |
| 20260508133658 | 53 | 177 | 3.5 | 4.3 | 0.00 | 0.00 | 0.00 | 75 | 1018.9 |
| 20260508133156 | 52 | 232 | 3.5 | 4.3 | 0.00 | 0.00 | 0.00 | 76 | 1018.7 |
| 20260508132653 | 51 | 175 | 2.6 | 4.3 | 0.00 | 0.00 | 0.00 | 77 | 1018.7 |
| 20260508132150 | 51 | 156 | 1.7 | 1.7 | 0.00 | 0.00 | 0.00 | 77 | 1018.7 |
| 20260508131646 | 50 | 187 | 2.6 | 2.6 | 0.00 | 0.00 | 0.00 | 78 | 1018.5 |
| 20260508131142 | 50 | 175 | 1.7 | 1.7 | 0.00 | 0.00 | 0.00 | 81 | 1018.7 |
| 20260508130639 | 49 | 156 | 1.7 | 1.7 | 0.00 | 0.00 | 0.00 | 83 | 1018.7 |
| 20260508130136 | 49 | 121 | 0.9 | 1.7 | 0.00 | 0.00 | 0.00 | 85 | 1018.6 |
| 20260508125631 | 48 | 157 | 1.7 | 1.7 | 0.00 | 0.00 | 0.00 | 84 | 1018.9 |
| 20260508125129 | 47 | 171 | 1.7 | 2.6 | 0.00 | 0.00 | 0.00 | 88 | 1018.8 |
| 20260508124627 | 46 | 158 | 2.6 | 2.6 | 0.00 | 0.00 | 0.00 | 87 | 1018.6 |
| 20260508124124 | 45 | 170 | 1.7 | 1.7 | 0.00 | 0.00 | 0.00 | 90 | 1018.7 |
| 20260508123622 | 44 | 169 | 1.7 | 1.7 | 0.00 | 0.00 | 0.00 | 92 | 1018.7 |
| 20260508123119 | 43 | 179 | 2.6 | 2.6 | 0.00 | 0.00 | 0.00 | 95 | 1018.5 |
| 20260508122615 | 42 | 173 | 1.7 | 1.7 | 0.00 | 0.00 | 0.00 | 97 | 1018.6 |
| 20260508122112 | 41 | 158 | 1.7 | 1.7 | 0.00 | 0.00 | 0.00 | 99 | 1018.7 |
| 20260508121611 | 41 | 163 | 1.7 | 1.7 | 0.00 | 0.00 | 0.00 | 99 | 1018.5 |
| 20260508121108 | 40 | 155 | 1.7 | 1.7 | 0.00 | 0.00 | 0.00 | 99 | 1018.3 |
| 20260508120606 | 40 | 162 | 1.7 | 1.7 | 0.00 | 0.00 | 0.00 | 99 | 1018.3 |
| 20260508120104 | 40 | 160 | 1.7 | 1.7 | 0.00 | 0.00 | 0.00 | 99 | 1018.3 |
| 20260508115601 | 40 | 159 | 1.7 | 1.7 | 0.00 | 0.00 | 0.00 | 99 | 1018.2 |
| 20260508115057 | 39 | 152 | 1.7 | 1.7 | 0.00 | 0.00 | 0.00 | 99 | 1018.1 |
| 20260508114555 | 39 | 152 | 1.7 | 1.7 | 0.00 | 0.00 | 0.00 | 99 | 1018.0 |
| 20260508114050 | 39 | 155 | 1.7 | 1.7 | 0.00 | 0.00 | 0.00 | 99 | 1018.1 |
| 20260508113548 | 39 | 156 | 1.7 | 1.7 | 0.00 | 0.00 | 0.00 | 99 | 1017.9 |
| 20260508113046 | 39 | 154 | 1.7 | 1.7 | 0.00 | 0.00 | 0.00 | 99 | 1018.0 |
| 20260508112542 | 39 | 157 | 1.7 | 1.7 | 0.00 | 0.00 | 0.00 | 99 | 1017.9 |
| 20260508112039 | 39 | 156 | 1.7 | 1.7 | 0.00 | 0.00 | 0.00 | 99 | 1017.8 |
| 20260508111536 | 39 | 153 | 1.7 | 1.7 | 0.00 | 0.00 | 0.00 | 99 | 1017.7 |
| 20260508111033 | 39 | 154 | 1.7 | 1.7 | 0.00 | 0.00 | 0.00 | 99 | 1017.7 |
| 20260508110531 | 39 | 147 | 0.9 | 0.9 | 0.00 | 0.00 | 0.00 | 99 | 1017.6 |
| 20260508110027 | 39 | 151 | 0.9 | 0.9 | 0.00 | 0.00 | 0.00 | 99 | 1017.7 |
| 20260508105522 | 39 | 149 | 0.9 | 1.7 | 0.00 | 0.00 | 0.00 | 99 | 1017.3 |
| 20260508105019 | 39 | 152 | 0.9 | 0.9 | 0.00 | 0.00 | 0.00 | 99 | 1017.5 |
| 20260508104517 | 39 | 153 | 1.7 | 1.7 | 0.00 | 0.00 | 0.00 | 99 | 1017.3 |
| 20260508104013 | 39 | 143 | 0.9 | 0.9 | 0.00 | 0.00 | 0.00 | 99 | 1017.4 |
| 20260508103510 | 38 | 154 | 0.9 | 1.7 | 0.00 | 0.00 | 0.00 | 99 | 1017.2 |
| 20260508103008 | 38 | 156 | 0.9 | 0.9 | 0.00 | 0.00 | 0.00 | 99 | 1017.2 |
| 20260508102506 | 38 | 147 | 0.9 | 0.9 | 0.00 | 0.00 | 0.00 | 99 | 1017.1 |
| 20260508102003 | 39 | 156 | 1.7 | 1.7 | 0.00 | 0.00 | 0.00 | 99 | 1017.2 |
| 20260508101500 | 39 | 153 | 1.7 | 1.7 | 0.00 | 0.00 | 0.00 | 99 | 1017.3 |
| 20260508100956 | 39 | 162 | 0.0 | 0.0 | 0.00 | 0.00 | 0.00 | 99 | 1017.3 |
| 20260508100455 | 39 | 152 | 0.0 | 0.0 | 0.00 | 0.00 | 0.00 | 99 | 1017.4 |
| 20260508095951 | 39 | 154 | 0.0 | 0.0 | 0.00 | 0.00 | 0.00 | 99 | 1017.0 |
| 20260508095449 | 39 | 150 | 0.0 | 0.0 | 0.00 | 0.00 | 0.00 | 99 | 1016.9 |
| 20260508094946 | 39 | 148 | 0.0 | 0.0 | 0.00 | 0.00 | 0.00 | 99 | 1016.9 |
| 20260508094442 | 39 | 152 | 0.9 | 0.9 | 0.00 | 0.00 | 0.00 | 99 | 1017.1 |
| 20260508093939 | 39 | 144 | 0.9 | 0.9 | 0.00 | 0.00 | 0.00 | 99 | 1016.9 |
| 20260508093437 | 39 | 150 | 0.9 | 0.9 | 0.00 | 0.00 | 0.00 | 99 | 1017.0 |
| 20260508092934 | 39 | 153 | 0.9 | 0.9 | 0.00 | 0.00 | 0.00 | 99 | 1017.2 |
| 20260508092432 | 40 | 154 | 0.9 | 0.9 | 0.00 | 0.00 | 0.00 | 99 | 1017.1 |
| 20260508091930 | 40 | 142 | 0.9 | 0.9 | 0.00 | 0.00 | 0.00 | 99 | 1016.9 |
| 20260508091427 | 40 | 154 | 0.9 | 0.9 | 0.00 | 0.00 | 0.00 | 99 | 1017.0 |
| 20260508090924 | 40 | 161 | 0.9 | 0.9 | 0.00 | 0.00 | 0.00 | 99 | 1016.9 |
| 20260508090423 | 40 | 152 | 0.9 | 0.9 | 0.00 | 0.00 | 0.00 | 99 | 1016.9 |
| 20260508085918 | 40 | 156 | 0.9 | 0.9 | 0.00 | 0.00 | 0.00 | 99 | 1016.8 |
| 20260508085415 | 41 | 155 | 0.9 | 1.7 | 0.00 | 0.00 | 0.00 | 99 | 1016.7 |
| 20260508084911 | 40 | 149 | 0.9 | 0.9 | 0.00 | 0.00 | 0.00 | 99 | 1016.9 |
| 20260508084408 | 40 | 149 | 0.9 | 0.9 | 0.00 | 0.00 | 0.00 | 99 | 1016.9 |
| 20260508083906 | 40 | 147 | 0.9 | 0.9 | 0.00 | 0.00 | 0.00 | 99 | 1016.9 |
| 20260508083403 | 41 | 153 | 0.9 | 0.9 | 0.00 | 0.00 | 0.00 | 99 | 1016.9 |
| 20260508082903 | 40 | 150 | 0.0 | 0.0 | 0.00 | 0.00 | 0.00 | 99 | 1016.8 |
| 20260508082401 | 40 | 145 | 0.0 | 0.0 | 0.00 | 0.00 | 0.00 | 99 | 1016.9 |
| 20260508081858 | 40 | 148 | 0.0 | 0.9 | 0.00 | 0.00 | 0.00 | 99 | 1017.0 |
| 20260508081355 | 40 | 148 | 0.0 | 0.9 | 0.00 | 0.00 | 0.00 | 98 | 1016.9 |
| 20260508080851 | 41 | 155 | 0.9 | 1.7 | 0.00 | 0.00 | 0.00 | 98 | 1017.0 |
| 20260508080349 | 41 | 151 | 1.7 | 1.7 | 0.00 | 0.00 | 0.00 | 97 | 1017.0 |
| 20260508075846 | 42 | 156 | 0.0 | 0.0 | 0.00 | 0.00 | 0.00 | 96 | 1017.0 |
| 20260508075343 | 42 | 149 | 0.0 | 0.0 | 0.00 | 0.00 | 0.00 | 95 | 1016.7 |
| 20260508074841 | 41 | 139 | 0.0 | 0.0 | 0.00 | 0.00 | 0.00 | 96 | 1017.0 |
| 20260508074337 | 41 | 138 | 0.0 | 0.0 | 0.00 | 0.00 | 0.00 | 98 | 1016.7 |
| 20260508073834 | 41 | 137 | 0.0 | 0.0 | 0.00 | 0.00 | 0.00 | 99 | 1016.6 |
| 20260508073332 | 41 | 138 | 0.0 | 0.0 | 0.00 | 0.00 | 0.00 | 99 | 1016.8 |
| 20260508072829 | 41 | 142 | 0.0 | 0.0 | 0.00 | 0.00 | 0.00 | 99 | 1017.0 |
| 20260508072325 | 41 | 150 | 0.0 | 0.0 | 0.00 | 0.00 | 0.00 | 99 | 1016.9 |
| 20260508071823 | 41 | 150 | 0.0 | 0.0 | 0.00 | 0.00 | 0.00 | 99 | 1017.0 |
| 20260508071321 | 41 | 151 | 0.9 | 0.9 | 0.00 | 0.00 | 0.00 | 99 | 1017.1 |
| 20260508070818 | 41 | 150 | 0.9 | 0.9 | 0.00 | 0.00 | 0.00 | 98 | 1017.1 |
| 20260508070316 | 42 | 146 | 0.9 | 0.9 | 0.00 | 0.00 | 0.00 | 98 | 1017.2 |
| 20260508065813 | 42 | 139 | 0.9 | 0.9 | 0.00 | 0.00 | 0.00 | 97 | 1017.4 |
| 20260508065311 | 42 | 151 | 1.7 | 1.7 | 0.00 | 0.00 | 0.00 | 97 | 1017.3 |
| 20260508064809 | 42 | 149 | 1.7 | 1.7 | 0.00 | 0.00 | 0.00 | 97 | 1017.3 |
| 20260508064307 | 41 | 153 | 0.9 | 0.9 | 0.00 | 0.00 | 0.00 | 96 | 1017.4 |
| 20260508063804 | 42 | 155 | 0.9 | 0.9 | 0.00 | 0.00 | 0.00 | 95 | 1017.5 |
| 20260508063302 | 42 | 162 | 0.9 | 1.7 | 0.00 | 0.00 | 0.00 | 94 | 1017.3 |
| 20260508062759 | 42 | 159 | 1.7 | 1.7 | 0.00 | 0.00 | 0.00 | 92 | 1017.4 |
| 20260508062256 | 42 | 150 | 0.9 | 0.9 | 0.00 | 0.00 | 0.00 | 93 | 1017.2 |
| 20260508061753 | 43 | 143 | 0.0 | 0.0 | 0.00 | 0.00 | 0.00 | 92 | 1017.2 |
| 20260508061250 | 44 | 143 | 0.0 | 0.0 | 0.00 | 0.00 | 0.00 | 90 | 1017.2 |
| 20260508060747 | 46 | 143 | 0.0 | 0.0 | 0.00 | 0.00 | 0.00 | 83 | 1017.1 |
| 20260508060245 | 46 | 146 | 0.0 | 0.0 | 0.00 | 0.00 | 0.00 | 78 | 1017.2 |
| 20260508055740 | 45 | 145 | 0.0 | 0.0 | 0.00 | 0.00 | 0.00 | 78 | 1017.3 |
| 20260508055237 | 46 | 132 | 0.0 | 0.0 | 0.00 | 0.00 | 0.00 | 77 | 1017.3 |
| 20260508054733 | 46 | 132 | 0.0 | 0.0 | 0.00 | 0.00 | 0.00 | 76 | 1017.2 |
| 20260508054232 | 46 | 132 | 0.0 | 0.0 | 0.00 | 0.00 | 0.00 | 76 | 1017.1 |
| 20260508053728 | 46 | 132 | 0.0 | 0.0 | 0.00 | 0.00 | 0.00 | 75 | 1017.1 |
| 20260508053226 | 46 | 132 | 0.0 | 0.0 | 0.00 | 0.00 | 0.00 | 76 | 1017.3 |
| 20260508052722 | 47 | 131 | 0.0 | 0.0 | 0.00 | 0.00 | 0.00 | 77 | 1017.2 |
| 20260508052219 | 46 | 113 | 0.0 | 0.0 | 0.00 | 0.00 | 0.00 | 75 | 1017.4 |
| 20260508051716 | 45 | 139 | 0.0 | 0.0 | 0.00 | 0.00 | 0.00 | 80 | 1017.1 |
| 20260508051211 | 43 | 139 | 0.0 | 0.0 | 0.00 | 0.00 | 0.00 | 83 | 1017.3 |
| 20260508050708 | 44 | 140 | 0.0 | 0.0 | 0.00 | 0.00 | 0.00 | 84 | 1017.5 |
| 20260508050206 | 44 | 140 | 0.0 | 0.0 | 0.00 | 0.00 | 0.00 | 87 | 1017.5 |
| 20260508045700 | 44 | 140 | 0.0 | 0.0 | 0.00 | 0.00 | 0.00 | 90 | 1017.4 |
| 20260508045159 | 44 | 140 | 0.0 | 0.0 | 0.00 | 0.00 | 0.00 | 88 | 1017.4 |
| 20260508044656 | 45 | 140 | 0.0 | 0.0 | 0.00 | 0.00 | 0.00 | 87 | 1017.6 |
| 20260508044152 | 45 | 140 | 0.0 | 0.0 | 0.00 | 0.00 | 0.00 | 85 | 1017.6 |
| 20260508043648 | 46 | 140 | 0.0 | 0.0 | 0.00 | 0.00 | 0.00 | 81 | 1017.5 |
| 20260508043146 | 46 | 140 | 0.0 | 0.0 | 0.00 | 0.00 | 0.00 | 77 | 1017.3 |
| 20260508042643 | 45 | 140 | 0.0 | 0.0 | 0.00 | 0.00 | 0.00 | 80 | 1017.6 |
| 20260508042140 | 45 | 139 | 0.0 | 0.0 | 0.00 | 0.00 | 0.00 | 83 | 1017.4 |
| 20260508041636 | 45 | 140 | 0.0 | 0.0 | 0.00 | 0.00 | 0.00 | 82 | 1017.3 |
| 20260508041133 | 45 | 140 | 0.0 | 0.0 | 0.00 | 0.00 | 0.00 | 83 | 1017.2 |
| 20260508040629 | 45 | 140 | 0.0 | 0.0 | 0.00 | 0.00 | 0.00 | 86 | 1017.2 |
| 20260508040127 | 45 | 140 | 0.0 | 0.0 | 0.00 | 0.02 | 0.02 | 89 | 1017.0 |
| 20260508035624 | 45 | 140 | 0.0 | 0.0 | 0.00 | 0.02 | 0.02 | 88 | 1016.9 |
| 20260508035122 | 45 | 140 | 0.0 | 0.0 | 0.00 | 0.02 | 0.02 | 86 | 1016.9 |
| 20260508034618 | 46 | 140 | 0.0 | 0.0 | 0.00 | 0.02 | 0.02 | 88 | 1017.0 |
| 20260508034116 | 46 | 140 | 0.0 | 0.0 | 0.00 | 0.02 | 0.02 | 86 | 1017.0 |
| 20260508033613 | 46 | 140 | 0.0 | 0.0 | 0.00 | 0.02 | 0.02 | 82 | 1017.0 |
| 20260508033111 | 46 | 138 | 0.0 | 0.0 | 0.00 | 0.02 | 0.02 | 81 | 1017.0 |
| 20260508032607 | 45 | 140 | 0.0 | 0.0 | 0.00 | 0.02 | 0.02 | 83 | 1017.0 |
| 20260508032105 | 45 | 140 | 0.0 | 0.0 | 0.00 | 0.02 | 0.02 | 84 | 1017.1 |
| 20260508031602 | 45 | 140 | 0.0 | 0.0 | 0.00 | 0.02 | 0.02 | 86 | 1016.9 |
| 20260508031057 | 45 | 140 | 0.0 | 0.0 | 0.00 | 0.02 | 0.02 | 87 | 1017.0 |
| 20260508030554 | 45 | 140 | 0.0 | 0.0 | 0.00 | 0.02 | 0.02 | 86 | 1016.9 |
| 20260508030052 | 45 | 140 | 0.0 | 0.0 | 0.00 | 0.02 | 0.02 | 85 | 1016.8 |
| 20260508025548 | 45 | 140 | 0.0 | 0.0 | 0.00 | 0.02 | 0.02 | 83 | 1016.8 |
| 20260508025045 | 46 | 140 | 0.0 | 0.0 | 0.00 | 0.02 | 0.02 | 81 | 1016.8 |
| 20260508024541 | 47 | 140 | 0.0 | 0.0 | 0.00 | 0.02 | 0.02 | 80 | 1017.0 |
| 20260508024038 | 47 | 140 | 0.0 | 0.0 | 0.00 | 0.02 | 0.02 | 80 | 1017.0 |
| 20260508023535 | 47 | 139 | 0.0 | 0.0 | 0.00 | 0.02 | 0.02 | 81 | 1016.7 |
| 20260508023032 | 48 | 140 | 0.0 | 0.0 | 0.00 | 0.02 | 0.02 | 83 | 1016.9 |
| 20260508022528 | 49 | 140 | 0.0 | 0.0 | 0.00 | 0.02 | 0.02 | 81 | 1017.0 |
| 20260508022025 | 49 | 129 | 0.0 | 0.0 | 0.00 | 0.02 | 0.02 | 79 | 1016.8 |
| 20260508021521 | 48 | 134 | 0.0 | 0.0 | 0.00 | 0.02 | 0.02 | 79 | 1016.7 |
| 20260508021017 | 48 | 133 | 0.0 | 0.0 | 0.00 | 0.02 | 0.02 | 81 | 1016.7 |
| 20260508020515 | 49 | 147 | 0.0 | 0.0 | 0.00 | 0.02 | 0.02 | 82 | 1016.7 |
| 20260508020013 | 49 | 135 | 0.0 | 0.0 | 0.00 | 0.02 | 0.02 | 80 | 1016.4 |
| 20260508015510 | 48 | 128 | 0.0 | 0.0 | 0.00 | 0.02 | 0.02 | 80 | 1016.2 |
| 20260508015006 | 48 | 133 | 0.0 | 0.0 | 0.00 | 0.02 | 0.02 | 82 | 1016.2 |
| 20260508014503 | 48 | 143 | 0.0 | 0.0 | 0.00 | 0.02 | 0.02 | 82 | 1016.1 |
| 20260508013959 | 48 | 144 | 0.0 | 0.0 | 0.00 | 0.02 | 0.02 | 81 | 1016.0 |
| 20260508013455 | 49 | 143 | 0.0 | 0.0 | 0.00 | 0.02 | 0.02 | 81 | 1015.9 |
| 20260508012953 | 49 | 143 | 0.0 | 0.0 | 0.00 | 0.02 | 0.02 | 80 | 1016.1 |
| 20260508012449 | 49 | 144 | 0.0 | 0.0 | 0.00 | 0.02 | 0.02 | 80 | 1015.8 |
| 20260508011947 | 48 | 136 | 0.0 | 0.0 | 0.00 | 0.02 | 0.02 | 82 | 1016.0 |
| 20260508011445 | 48 | 137 | 0.0 | 0.0 | 0.00 | 0.02 | 0.02 | 81 | 1015.8 |
| 20260508010942 | 48 | 138 | 0.0 | 0.0 | 0.00 | 0.02 | 0.02 | 81 | 1015.6 |
| 20260508010439 | 49 | 139 | 0.0 | 0.0 | 0.00 | 0.02 | 0.02 | 80 | 1015.8 |
| 20260508005936 | 49 | 138 | 0.0 | 0.0 | 0.00 | 0.02 | 0.02 | 79 | 1015.6 |
| 20260508005433 | 50 | 139 | 0.0 | 0.0 | 0.00 | 0.02 | 0.02 | 79 | 1015.4 |
| 20260508004929 | 50 | 148 | 0.0 | 0.0 | 0.00 | 0.02 | 0.02 | 79 | 1015.6 |
| 20260508004425 | 50 | 139 | 0.0 | 0.0 | 0.00 | 0.02 | 0.02 | 78 | 1015.6 |
| 20260508003922 | 51 | 138 | 0.0 | 0.0 | 0.00 | 0.02 | 0.02 | 78 | 1015.4 |
| 20260508003419 | 51 | 138 | 0.0 | 0.0 | 0.00 | 0.02 | 0.02 | 76 | 1015.3 |
| 20260508002917 | 52 | 137 | 0.0 | 0.0 | 0.00 | 0.02 | 0.02 | 75 | 1015.4 |
| 20260508002413 | 53 | 143 | 0.0 | 0.0 | 0.00 | 0.02 | 0.02 | 73 | 1015.2 |
| 20260508001909 | 54 | 137 | 0.0 | 0.0 | 0.00 | 0.02 | 0.02 | 68 | 1015.2 |
| 20260508001405 | 54 | 115 | 0.0 | 0.9 | 0.00 | 0.02 | 0.02 | 68 | 1015.1 |
| 20260508000902 | 54 | 134 | 0.0 | 0.9 | 0.00 | 0.02 | 0.02 | 67 | 1015.3 |